KSAD Airport Information

Runway Information
Runway 08 Length 4800 ft width 75 ft
Elevation 3158 ft Threshold 0 ft Heading 92
Runway 26 Length 4800 ft Width 75 ft
Elevation 3177 ft Threshold 0 ft Heading 272
Runway 12 Length 6015 ft width 100 ft
Elevation 3163 ft Threshold 0 ft Heading 135
Runway 30 Length 6015 ft Width 100 ft
Elevation 3167 ft Threshold 0 ft Heading 315
Airport Frequencies
Type ASOS Name ASOS Frequency 124.175 MHZ
Type CNTR Name ALBUQUERQU Frequency 134.45 MHZ
Type RDO Name PRESCOTT R Frequency 122.3 MHZ
Type UNIC Name CTAF/UNICO Frequency 122.8 MHZ
Airport Navaids
Airport Weather Information & NOTAM
ADDS - METARS form results

(1600 UTC 19 May 2022)
Data provider http://aviationweather.gov/metar/data/
 
METAR text: KSAD 191551Z AUTO 32014G21KT 10SM CLR 28/01 A2994 RMK AO2 SLP083 T02780011
Conditions at: KSAD (SAFFORD , AZ, US) observed 1551 UTC 19 May 2022
Temperature: 27.8°C (82°F)
Dewpoint: 1.1°C (34°F) [RH = 18%]
Pressure (altimeter): 29.94 inches Hg (1014.0 mb)
[Sea-level pressure: 1008.3 mb]
Winds: from the NW (320 degrees) at 16 MPH (14 knots; 7.2 m/s)
gusting to 24 MPH (21 knots; 10.8 m/s)
Visibility: 10 or more miles (16+ km)
Ceiling: at least 12,000 feet AGL
Clouds: sky clear below 12,000 feet AGL
Weather: automated observation with no human augmentation;
there may or may not be significant weather present at this time